Terminal Aerodrome Forecast
Issued by NWS

Home | Current Version | Previous Version | Text Only | Print | Product List | Glossary On
Versions: 1 2 3 4 5 6 7 8 9 10 11 12 13
000
FTUS45 KRIW 061700
TAFWRL
TAF
KWRL 061720Z 0618/0718 33012G22KT P6SM VCSH SCT030 BKN050
      TEMPO 0618/0622 33015G22KT P6SM -RA BKN040
     FM070100 31009KT P6SM BKN050
     FM071400 31009KT P6SM -RA SCT015 BKN020=

USA.gov is the U.S. government's official web portal to all federal, state and local government web resources and services.